ポルト・アレグレ の空港の天気 - METARとTAF

ポルト・アレグレ国際空港 ( SBPA / POA ) - ブラジル リオグランデ・ド・スル州ポルト・アレグレ
飛行場実況気象(Metar)
観測時間08/11 03:00 BRT (08/11 06:00 UTC)
風向・風速南 9m/s
視程10km以上
天気現象
なし
気温17℃
湿度83%
気圧1012hPa
METARSBPA 110600Z 19017KT CAVOK 17/14 Q1012
過去の天気等 Google飛行場航空写真 Wunderground天気予報

過去48時間のMETAR

飛行場予報(TAF)
発表時間: 8/11 00:00 BRT (8/11 03:00 UTC)
予報対象時間: 11日3時 BRT ~ 12日3時 BRT
風向・風速北 3m/s
視程10km以上
なし
11日3時 BRT から 確率 40% で
風向・風速南南西 7m/s
視程4000m
天気現象もや
全天の8割程度の雲 雲底高度 90m
11日7時 BRT ~ 11日9時 BRT に徐々に
視程10km以上
全天の4割程度の雲 雲底高度 610m
11日19時 BRT ~ 12日3時 BRT に 確率 40% で一時的に
天気現象
全天の8割程度の雲 雲底高度 370m
TAF SBPA 110300Z 1106/1206 35005KT CAVOK TX14/1114Z TN07/1206Z
PROB40 1106/1107 20013KT 4000 BR BKN003
BECMG 1110/1112 9999 SCT020
PROB40 TEMPO 1122/1206 RA BKN012 RMK PCO